Dunkirk, New York
Current Conditions -  °F | °C
As of 7:53 PM on Saturday 20 Dec 2014 (Local Time) from KDKK Reporting Station
Overcast Overcast  
Wind Chill: 24°   Ceiling: 2700
Heat Index: 30°   Visibility: 10mi
Dew Point: 23°   Wind: 6mph
Humidity: 75%   Direction: 200°SSW
Pressure: 30.28"   Gusts: NA
Location:  42.49°N, 79.34°W
Report Text: KDKK 210053Z AUTO 20005KT 10SM OVC027 M01/M05 A3028 RMK AO2 SLP261 T10111050 $
Loading
Personal Weather Stations






























Interactive Weather Map New forecast layout! Learn more

10-Day Weather Forecast

Advertisements
Track Severe Weather on mobile